• Join FlightAware (Why Join?)
  • Login
  • US Flag 
01:23PM EDT


 

Airport Tracker/Info


-or-


 

Live Flight TrackerFlight Track Log ✈ N5085K ✈ 30-Aug-2013 ✈ KPSK - KIPJ

Flight Track Log - Related Links

Times and Time Zones

All times are in EDT time to prevent confusion due to time zone crossing. See the N5085K flight status page for this flight to view local times or setup timezone preferences in your user account.

Time Position Orientation Groundspeed Altitude Reporting Facility
EDT Latitude Longitude Course Direction KTS MPH feet Rate Location/Type
09:09PM 36.9650 -80.7447 177° South 78 90 6,100  Level Atlanta Center
09:10PM 36.9419 -80.7431 177° South 83 96 6,400 180 Climbing Atlanta Center
09:11PM 36.9194 -80.7519 198° South 83 96 6,500  Climbing Atlanta Center
09:12PM 36.8922 -80.7556 186° South 88 101 6,500  Level Atlanta Center
09:13PM 36.8611 -80.7619 189° South 100 115 6,500  Level Atlanta Center
09:14PM 36.8342 -80.7658 187° South 100 115 6,500  Level Atlanta Center
09:15PM 36.8053 -80.7747 194° South 105 121 6,500  Level Atlanta Center
09:16PM 36.7783 -80.7836 195° South 105 121 6,600  Climbing Atlanta Center
09:17PM 36.7514 -80.7900 191° South 105 121 6,600  Level Atlanta Center
09:18PM 36.7247 -80.8014 199° South 105 121 6,600 -60 Level Atlanta Center
09:19PM 36.6978 -80.8103 195° South 105 121 6,500  Descending Atlanta Center
09:20PM 36.6708 -80.8217 199° South 105 121 6,600  Climbing Atlanta Center
09:21PM 36.6439 -80.8278 190° South 105 121 6,600  Level Atlanta Center
09:22PM 36.6172 -80.8394 199° South 105 121 6,600  Level Atlanta Center
09:23PM 36.5903 -80.8481 194° South 105 121 6,600  Level Atlanta Center
09:24PM 36.5633 -80.8569 195° South 105 121 6,600  Level Atlanta Center
09:25PM 36.5386 -80.8683 200° South 105 121 6,600  Level Atlanta Center
09:26PM 36.5119 -80.8797 199° South 105 121 6,600  Level Atlanta Center
09:27PM 36.4828 -80.8861 190° South 105 121 6,600  Level Atlanta Center
09:28PM 36.4539 -80.8922 190° South 105 121 6,600 -60 Level Atlanta Center
09:29PM 36.4250 -80.9011 194° South 105 121 6,500  Descending Atlanta Center
09:30PM 36.3958 -80.9128 198° South 105 121 6,600  Climbing Atlanta Center
09:31PM 36.3650 -80.9242 197° South 105 121 6,600  Level Atlanta Center
09:32PM 36.3339 -80.9306 189° South 105 121 6,600  Level Atlanta Center
09:33PM 36.3069 -80.9367 190° South 105 121 6,600 -300 Level Atlanta Center
09:34PM 36.2758 -80.9508 200° South 110 127 6,100 -600 Descending Atlanta Center
09:35PM 36.2450 -80.9622 197° South 110 127 5,500 -600 Descending Atlanta Center
09:36PM 36.2161 -80.9736 198° South 105 121 5,000 -300 Descending Atlanta Center
09:37PM 36.1892 -80.9825 195° South 105 121 5,000  Level Atlanta Center
09:38PM 36.1603 -80.9911 194° South 105 121 5,000  Level Atlanta Center
09:39PM 36.1333 -80.9975 191° South 105 121 5,000  Level Atlanta Center
09:40PM 36.1064 -81.0061 194° South 105 121 5,100  Climbing Atlanta Center
09:41PM 36.0794 -81.0147 194° South 105 121 5,100  Level Atlanta Center
09:42PM 36.0483 -81.0264 197° South 105 121 5,100 -60 Level Atlanta Center
09:43PM 36.0194 -81.0325 190° South 105 121 5,000 -60 Descending Atlanta Center
09:44PM 35.9903 -81.0386 190° South 105 121 5,000  Level Atlanta Center
09:45PM 35.9633 -81.0475 195° South 105 121 5,000  Level Atlanta Center
09:46PM 35.9344 -81.0536 190° South 105 121 5,000  Level Atlanta Center
09:47PM 35.9033 -81.0625 193° South 105 121 5,000  Level Atlanta Center
09:48PM 35.8783 -81.0683 191° South 105 121 5,000  Level Atlanta Center
09:49PM 35.8514 -81.0772 195° South 105 121 5,000  Level Atlanta Center
09:50PM 35.8244 -81.0806 186° South 105 121 5,000  Level Atlanta Center
09:51PM 35.7972 -81.0792 178° South 98 113 5,000 -300 Level Atlanta Center
09:52PM 35.7661 -81.0828 185° South 106 122 4,500 -540 Descending Atlanta Center
09:53PM 35.7350 -81.0864 185° South 106 122 4,000 -420 Descending Atlanta Center
09:54PM 35.7058 -81.0928 190° South 111 128 3,700 -300 Descending Atlanta Center
09:55PM 35.6808 -81.0986 191° South 105 121 3,400 -240 Descending Atlanta Center
09:56PM 35.6539 -81.1047 190° South 105 121 3,300 -60 Descending Atlanta Center
09:57PM 35.6292 -81.1133 196° South 105 121 3,300 -60 Level Atlanta Center
09:58PM 35.6022 -81.1244 199° South 105 121 3,200 -120 Descending Atlanta Center
10:00PM 35.5730 -81.1275 185° South  Level FlightAware Approximate
10:07PM 35.4833 -81.1612 195° South  Level Estimated
10:08PM 35.4833 -81.1612 195° South  Level Estimated
10:09PM 35.4833 -81.1612 195° South  Level Estimated
10:10PM 35.4833 -81.1612 195° South  Level Estimated
10:11PM 35.4833 -81.1612 195° South  Level Estimated
10:12PM 35.4833 -81.1612 195° South  Level Estimated